createdAt,value
2018-12-05T00:00:53.553Z,1021.13
2018-12-05T00:01:53.519Z,1021.12
2018-12-05T00:02:53.585Z,1021.06
2018-12-05T00:03:53.563Z,1021.03
2018-12-05T00:04:53.517Z,1021.07
2018-12-05T00:05:53.540Z,1021.04
2018-12-05T00:06:53.511Z,1021.07
2018-12-05T00:07:53.496Z,1021.05
2018-12-05T00:08:53.491Z,1021.06
2018-12-05T00:09:53.455Z,1021.07
2018-12-05T00:10:53.445Z,1021.06
2018-12-05T00:11:53.428Z,1021.08
2018-12-05T00:12:53.477Z,1021.01
2018-12-05T00:13:53.430Z,1021.10
2018-12-05T00:14:53.446Z,1021.06
2018-12-05T00:15:53.375Z,1021.03
2018-12-05T00:16:53.428Z,1021.01
2018-12-05T00:17:53.360Z,1021.00
2018-12-05T00:18:53.360Z,1021.00
2018-12-05T00:19:53.355Z,1020.98
2018-12-05T00:20:53.348Z,1020.95
2018-12-05T00:21:53.366Z,1020.99
2018-12-05T00:22:53.309Z,1020.99
2018-12-05T00:23:53.304Z,1020.99
2018-12-05T00:24:53.317Z,1020.97
2018-12-05T00:25:53.275Z,1020.94
2018-12-05T00:26:53.262Z,1020.94
2018-12-05T00:27:53.249Z,1020.98
2018-12-05T00:28:53.275Z,1021.00
2018-12-05T00:29:53.259Z,1020.97
2018-12-05T00:30:53.259Z,1020.92
2018-12-05T00:31:53.218Z,1020.93
2018-12-05T00:32:53.202Z,1020.97
2018-12-05T00:33:53.205Z,1020.95
2018-12-05T00:34:53.198Z,1021.00
2018-12-05T00:35:53.165Z,1021.03
2018-12-05T00:36:53.215Z,1021.00
2018-12-05T00:37:53.147Z,1020.99
2018-12-05T00:38:53.172Z,1020.99
2018-12-05T00:39:53.152Z,1020.93
2018-12-05T00:40:53.119Z,1020.99
2018-12-05T00:41:53.107Z,1020.94
2018-12-05T00:42:53.097Z,1020.98
2018-12-05T00:43:53.102Z,1021.00
2018-12-05T00:44:53.156Z,1021.03
2018-12-05T00:45:53.108Z,1021.05
2018-12-05T00:46:53.065Z,1020.99
2018-12-05T00:47:53.049Z,1021.00
2018-12-05T00:48:53.035Z,1021.04
2018-12-05T00:49:53.033Z,1020.98
2018-12-05T00:50:53.035Z,1020.96
2018-12-05T00:51:52.998Z,1021.00
2018-12-05T00:52:53.003Z,1021.02
2018-12-05T00:53:53.001Z,1021.08
2018-12-05T00:54:53.007Z,1021.07
2018-12-05T00:55:53.002Z,1021.06
2018-12-05T00:56:52.960Z,1021.05
2018-12-05T00:57:52.933Z,1020.99
2018-12-05T00:58:52.932Z,1020.97
2018-12-05T00:59:52.998Z,1021.06
2018-12-05T01:00:52.908Z,1021.03
2018-12-05T01:01:52.939Z,1021.07
2018-12-05T01:02:52.899Z,1021.06
2018-12-05T01:04:01.559Z,1021.01
2018-12-05T01:04:52.942Z,1021.06
2018-12-05T01:05:52.936Z,1020.99
2018-12-05T01:06:52.870Z,1021.00
2018-12-05T01:07:52.869Z,1020.99
2018-12-05T01:08:52.814Z,1020.98
2018-12-05T01:09:52.848Z,1020.97
2018-12-05T01:10:52.808Z,1020.98
2018-12-05T01:11:52.812Z,1020.94
2018-12-05T01:12:52.766Z,1020.93
2018-12-05T01:13:52.787Z,1020.91
2018-12-05T01:14:52.744Z,1020.91
2018-12-05T01:15:52.755Z,1020.95
2018-12-05T01:17:01.500Z,1020.94
2018-12-05T01:17:52.811Z,1020.94
2018-12-05T01:18:52.869Z,1020.95
2018-12-05T01:19:52.842Z,1020.92
2018-12-05T01:20:52.936Z,1020.94
2018-12-05T01:21:52.738Z,1020.95
2018-12-05T01:22:52.665Z,1021.01
2018-12-05T01:24:00.323Z,1020.97
2018-12-05T01:24:52.708Z,1020.93
2018-12-05T01:25:52.653Z,1020.93
2018-12-05T01:26:52.665Z,1020.86
2018-12-05T01:27:52.637Z,1020.87
2018-12-05T01:28:52.636Z,1020.87
2018-12-05T01:29:52.584Z,1020.88
2018-12-05T01:30:52.602Z,1020.89
2018-12-05T01:31:52.696Z,1020.84
2018-12-05T01:32:52.584Z,1020.85
2018-12-05T01:33:52.729Z,1020.85
2018-12-05T01:34:52.544Z,1020.91
2018-12-05T01:35:52.548Z,1020.86
2018-12-05T01:36:52.628Z,1020.88
2018-12-05T01:37:52.562Z,1020.92
2018-12-05T01:38:52.500Z,1020.91
2018-12-05T01:39:52.496Z,1020.91
2018-12-05T01:40:52.541Z,1020.86
2018-12-05T01:41:52.548Z,1020.85
2018-12-05T01:42:52.555Z,1020.79
2018-12-05T01:43:52.471Z,1020.82
2018-12-05T01:44:52.453Z,1020.83
2018-12-05T01:45:52.442Z,1020.84
2018-12-05T01:46:52.454Z,1020.83
2018-12-05T01:47:52.476Z,1020.81
2018-12-05T01:48:52.529Z,1020.77
2018-12-05T01:49:52.396Z,1020.80
2018-12-05T01:50:52.428Z,1020.84
2018-12-05T01:51:52.441Z,1020.80
2018-12-05T01:52:52.360Z,1020.78
2018-12-05T01:53:52.593Z,1020.73
2018-12-05T01:54:52.421Z,1020.74
2018-12-05T01:55:52.453Z,1020.74
2018-12-05T01:56:52.380Z,1020.76
2018-12-05T01:57:52.433Z,1020.73
2018-12-05T01:58:52.396Z,1020.79
2018-12-05T01:59:52.403Z,1020.77
2018-12-05T02:00:52.351Z,1020.80
2018-12-05T02:01:52.459Z,1020.81
2018-12-05T02:02:52.303Z,1020.78
2018-12-05T02:03:52.315Z,1020.78
2018-12-05T02:04:52.381Z,1020.74
2018-12-05T02:05:52.233Z,1020.75
2018-12-05T02:06:52.263Z,1020.70
2018-12-05T02:07:52.290Z,1020.73
2018-12-05T02:08:52.232Z,1020.76
2018-12-05T02:09:52.243Z,1020.75
2018-12-05T02:10:52.171Z,1020.73
2018-12-05T02:11:52.185Z,1020.77
2018-12-05T02:12:52.208Z,1020.74
2018-12-05T02:13:52.203Z,1020.74
2018-12-05T02:14:52.160Z,1020.73
2018-12-05T02:15:52.154Z,1020.75
2018-12-05T02:16:52.233Z,1020.81
2018-12-05T02:17:52.160Z,1020.74
2018-12-05T02:20:02.502Z,1020.76
2018-12-05T02:21:12.338Z,1020.77
2018-12-05T02:22:02.474Z,1020.85
2018-12-05T02:23:02.461Z,1020.82
2018-12-05T02:24:02.399Z,1020.84
2018-12-05T02:25:02.406Z,1020.88
2018-12-05T02:26:02.419Z,1020.89
2018-12-05T02:27:02.402Z,1020.93
2018-12-05T02:28:02.331Z,1020.89
2018-12-05T02:29:02.503Z,1020.91
2018-12-05T02:30:02.331Z,1020.90
2018-12-05T02:31:02.311Z,1020.82
2018-12-05T02:32:02.436Z,1020.90
2018-12-05T02:33:02.395Z,1020.76
2018-12-05T02:34:02.280Z,1020.76
2018-12-05T02:35:02.324Z,1020.75
2018-12-05T02:36:02.259Z,1020.83
2018-12-05T02:37:02.263Z,1020.78
2018-12-05T02:38:02.267Z,1020.75
2018-12-05T02:39:02.286Z,1020.77
2018-12-05T02:40:02.233Z,1020.76
2018-12-05T02:41:02.224Z,1020.78
2018-12-05T02:42:02.336Z,1020.76
2018-12-05T02:43:02.212Z,1020.81
2018-12-05T02:44:02.224Z,1020.80
2018-12-05T02:45:02.195Z,1020.76
2018-12-05T02:46:02.152Z,1020.75
2018-12-05T02:47:02.178Z,1020.74
2018-12-05T02:48:02.138Z,1020.75
2018-12-05T02:49:02.155Z,1020.70
2018-12-05T02:50:02.138Z,1020.73
2018-12-05T02:51:02.078Z,1020.71
2018-12-05T02:52:02.071Z,1020.67
2018-12-05T02:53:02.073Z,1020.64
2018-12-05T02:54:02.104Z,1020.56
2018-12-05T02:55:02.124Z,1020.56
2018-12-05T02:56:02.127Z,1020.52
2018-12-05T02:57:02.024Z,1020.42
2018-12-05T02:58:02.130Z,1020.38
2018-12-05T02:59:02.044Z,1020.36
2018-12-05T03:00:02.034Z,1020.33
2018-12-05T03:01:01.997Z,1020.31
2018-12-05T03:02:02.091Z,1020.31
2018-12-05T03:03:02.140Z,1020.33
2018-12-05T03:04:01.948Z,1020.31
2018-12-05T03:05:01.945Z,1020.28
2018-12-05T03:06:01.907Z,1020.36
2018-12-05T03:07:01.980Z,1020.36
2018-12-05T03:08:02.027Z,1020.36
2018-12-05T03:09:02.118Z,1020.33
2018-12-05T03:10:01.988Z,1020.31
2018-12-05T03:11:01.889Z,1020.35
2018-12-05T03:12:01.893Z,1020.35
2018-12-05T03:13:01.907Z,1020.39
2018-12-05T03:14:01.847Z,1020.36
2018-12-05T03:15:01.854Z,1020.29
2018-12-05T03:16:01.844Z,1020.29
2018-12-05T03:17:01.839Z,1020.32
2018-12-05T03:18:01.861Z,1020.35
2018-12-05T03:19:01.792Z,1020.37
2018-12-05T03:20:01.838Z,1020.42
2018-12-05T03:21:01.753Z,1020.38
2018-12-05T03:23:12.026Z,1020.40
2018-12-05T03:25:21.425Z,1020.35
2018-12-05T03:26:21.376Z,1020.35
2018-12-05T03:27:21.307Z,1020.39
2018-12-05T03:28:21.284Z,1020.33
2018-12-05T03:29:21.240Z,1020.32
2018-12-05T03:30:21.271Z,1020.33
2018-12-05T03:31:21.212Z,1020.30
2018-12-05T03:32:21.187Z,1020.33
2018-12-05T03:33:21.195Z,1020.37
2018-12-05T03:34:21.178Z,1020.42
2018-12-05T03:35:21.141Z,1020.44
2018-12-05T03:36:21.144Z,1020.40
2018-12-05T03:37:21.118Z,1020.38
2018-12-05T03:38:21.143Z,1020.38
2018-12-05T03:39:21.131Z,1020.48
2018-12-05T03:40:21.081Z,1020.44
2018-12-05T03:41:21.073Z,1020.44
2018-12-05T03:42:21.061Z,1020.41
2018-12-05T03:43:21.046Z,1020.44
2018-12-05T03:44:21.084Z,1020.42
2018-12-05T03:45:21.028Z,1020.46
2018-12-05T03:46:21.012Z,1020.44
2018-12-05T03:47:21.002Z,1020.50
2018-12-05T03:48:20.990Z,1020.41
2018-12-05T03:49:21.013Z,1020.40
2018-12-05T03:50:21.003Z,1020.44
2018-12-05T03:51:20.964Z,1020.41
2018-12-05T03:52:20.949Z,1020.41
2018-12-05T03:53:20.947Z,1020.39
2018-12-05T03:54:20.947Z,1020.42
2018-12-05T03:55:20.920Z,1020.44
2018-12-05T03:56:20.965Z,1020.37
2018-12-05T03:57:20.896Z,1020.37
2018-12-05T03:58:20.886Z,1020.40
2018-12-05T03:59:20.899Z,1020.44
2018-12-05T04:00:20.866Z,1020.49
2018-12-05T04:01:20.869Z,1020.46
2018-12-05T04:02:20.851Z,1020.49
2018-12-05T04:03:20.834Z,1020.52
2018-12-05T04:04:20.845Z,1020.47
2018-12-05T04:05:20.811Z,1020.45
2018-12-05T04:06:20.798Z,1020.43
2018-12-05T04:07:20.829Z,1020.39
2018-12-05T04:08:20.777Z,1020.37
2018-12-05T04:09:20.792Z,1020.40
2018-12-05T04:10:20.756Z,1020.45
2018-12-05T04:11:20.746Z,1020.40
2018-12-05T04:12:20.732Z,1020.36
2018-12-05T04:13:20.737Z,1020.34
2018-12-05T04:14:20.729Z,1020.33
2018-12-05T04:15:20.714Z,1020.30
2018-12-05T04:16:20.689Z,1020.27
2018-12-05T04:17:20.679Z,1020.22
2018-12-05T04:18:20.673Z,1020.23
2018-12-05T04:19:20.700Z,1020.15
2018-12-05T04:20:20.649Z,1020.21
2018-12-05T04:21:20.636Z,1020.17
2018-12-05T04:22:28.329Z,1020.17
2018-12-05T04:23:20.813Z,1020.20
2018-12-05T04:24:28.442Z,1020.23
2018-12-05T04:25:20.716Z,1020.27
2018-12-05T04:26:20.640Z,1020.26
2018-12-05T04:27:20.650Z,1020.23
2018-12-05T04:28:20.655Z,1020.27
2018-12-05T04:29:20.617Z,1020.30
2018-12-05T04:30:20.555Z,1020.35
2018-12-05T04:31:20.535Z,1020.32
2018-12-05T04:32:20.519Z,1020.31
2018-12-05T04:33:20.508Z,1020.39
2018-12-05T04:34:20.512Z,1020.40
2018-12-05T04:35:20.496Z,1020.39
2018-12-05T04:36:20.472Z,1020.40
2018-12-05T04:37:20.473Z,1020.42
2018-12-05T04:38:20.450Z,1020.42
2018-12-05T04:39:20.467Z,1020.42
2018-12-05T04:40:20.432Z,1020.39
2018-12-05T04:41:20.434Z,1020.43
2018-12-05T04:42:20.452Z,1020.40
2018-12-05T04:43:20.399Z,1020.36
2018-12-05T04:44:20.420Z,1020.41
2018-12-05T04:45:20.379Z,1020.42
2018-12-05T04:46:20.373Z,1020.44
2018-12-05T04:47:20.352Z,1020.42
2018-12-05T04:48:20.348Z,1020.43
2018-12-05T04:49:20.354Z,1020.44
2018-12-05T04:50:20.341Z,1020.40
2018-12-05T04:51:20.324Z,1020.43
2018-12-05T04:52:20.305Z,1020.44
2018-12-05T04:53:20.291Z,1020.45
2018-12-05T04:54:20.300Z,1020.48
2018-12-05T04:55:20.303Z,1020.48
2018-12-05T04:56:20.259Z,1020.51
2018-12-05T04:57:20.260Z,1020.43
2018-12-05T04:58:20.235Z,1020.43
2018-12-05T04:59:20.228Z,1020.39
2018-12-05T05:00:20.268Z,1020.44
2018-12-05T05:01:20.202Z,1020.43
2018-12-05T05:02:20.193Z,1020.38
2018-12-05T05:03:20.183Z,1020.35
2018-12-05T05:04:20.176Z,1020.40
2018-12-05T05:05:20.185Z,1020.40
2018-12-05T05:06:20.159Z,1020.39
2018-12-05T05:07:20.177Z,1020.40
2018-12-05T05:08:20.130Z,1020.41
2018-12-05T05:09:20.129Z,1020.40
2018-12-05T05:10:20.132Z,1020.44
2018-12-05T05:11:20.112Z,1020.47
2018-12-05T05:12:20.102Z,1020.48
2018-12-05T05:13:20.110Z,1020.52
2018-12-05T05:14:20.077Z,1020.50
2018-12-05T05:15:20.125Z,1020.47
2018-12-05T05:16:20.047Z,1020.41
2018-12-05T05:17:20.048Z,1020.41
2018-12-05T05:18:20.062Z,1020.33
2018-12-05T05:19:20.015Z,1020.27
2018-12-05T05:20:20.026Z,1020.31
2018-12-05T05:21:19.991Z,1020.25
2018-12-05T05:22:20.021Z,1020.24
2018-12-05T05:23:19.982Z,1020.20
2018-12-05T05:24:27.688Z,1020.21
2018-12-05T05:25:21.710Z,1020.22
2018-12-05T05:26:28.608Z,1020.21
2018-12-05T05:27:27.676Z,1020.19
2018-12-05T05:28:20.157Z,1020.16
2018-12-05T05:29:28.704Z,1020.09
2018-12-05T05:30:20.093Z,1020.09
2018-12-05T05:31:20.063Z,1020.08
2018-12-05T05:32:19.951Z,1020.10
2018-12-05T05:33:20.084Z,1020.07
2018-12-05T05:34:19.888Z,1020.05
2018-12-05T05:35:19.884Z,1020.07
2018-12-05T05:36:19.836Z,1020.03
2018-12-05T05:37:19.928Z,1020.05
2018-12-05T05:38:19.874Z,1020.06
2018-12-05T05:39:19.915Z,1020.08
2018-12-05T05:40:19.827Z,1020.14
2018-12-05T05:41:19.837Z,1020.14
2018-12-05T05:42:19.826Z,1020.09
2018-12-05T05:43:19.873Z,1020.08
2018-12-05T05:44:19.762Z,1020.07
2018-12-05T05:45:19.855Z,1020.05
2018-12-05T05:46:19.782Z,1020.05
2018-12-05T05:47:19.763Z,1020.07
2018-12-05T05:48:19.719Z,1020.02
2018-12-05T05:49:19.766Z,1020.04
2018-12-05T05:50:20.675Z,1019.98
2018-12-05T05:51:19.862Z,1020.02
2018-12-05T05:52:19.700Z,1020.03
2018-12-05T05:53:19.709Z,1020.02
2018-12-05T05:54:19.693Z,1020.02
2018-12-05T05:55:19.662Z,1019.95
2018-12-05T05:56:19.759Z,1019.91
2018-12-05T05:57:19.637Z,1019.90
2018-12-05T05:58:19.616Z,1019.99
2018-12-05T05:59:19.647Z,1019.99
2018-12-05T06:00:19.602Z,1019.96
2018-12-05T06:01:19.686Z,1020.01
2018-12-05T06:02:20.398Z,1019.97
2018-12-05T06:03:19.604Z,1019.93
2018-12-05T06:04:19.702Z,1019.95
2018-12-05T06:05:19.589Z,1019.99
2018-12-05T06:06:19.695Z,1019.92
2018-12-05T06:07:19.658Z,1019.92
2018-12-05T06:08:19.614Z,1020.04
2018-12-05T06:09:19.482Z,1019.99
2018-12-05T06:10:19.478Z,1019.98
2018-12-05T06:11:19.473Z,1019.94
2018-12-05T06:12:19.442Z,1019.94
2018-12-05T06:13:19.443Z,1019.91
2018-12-05T06:14:19.417Z,1019.93
2018-12-05T06:15:19.412Z,1019.93
2018-12-05T06:16:19.458Z,1019.91
2018-12-05T06:17:19.385Z,1019.93
2018-12-05T06:18:19.376Z,1019.94
2018-12-05T06:19:19.364Z,1019.92
2018-12-05T06:20:19.357Z,1019.95
2018-12-05T06:21:19.416Z,1019.96
2018-12-05T06:22:19.332Z,1019.96
2018-12-05T06:23:19.322Z,1019.97
2018-12-05T06:24:19.311Z,1019.88
2018-12-05T06:25:28.033Z,1019.88
2018-12-05T06:26:28.250Z,1019.88
2018-12-05T06:28:30.584Z,1019.85
2018-12-05T06:29:30.523Z,1019.83
2018-12-05T06:30:30.582Z,1019.86
2018-12-05T06:31:39.357Z,1019.88
2018-12-05T06:32:30.542Z,1019.88
2018-12-05T06:33:30.913Z,1019.95
2018-12-05T06:34:30.506Z,1019.93
2018-12-05T06:35:30.528Z,1019.95
2018-12-05T06:36:30.597Z,1019.97
2018-12-05T06:37:30.465Z,1019.99
2018-12-05T06:38:30.473Z,1019.97
2018-12-05T06:39:30.409Z,1019.95
2018-12-05T06:40:30.399Z,1019.93
2018-12-05T06:41:30.467Z,1019.93
2018-12-05T06:42:30.380Z,1019.91
2018-12-05T06:43:30.386Z,1019.98
2018-12-05T06:44:30.360Z,1020.04
2018-12-05T06:45:30.347Z,1020.00
2018-12-05T06:46:30.385Z,1020.01
2018-12-05T06:47:30.326Z,1020.07
2018-12-05T06:48:30.322Z,1019.99
2018-12-05T06:49:30.312Z,1020.09
2018-12-05T06:50:30.297Z,1020.06
2018-12-05T06:51:30.313Z,1020.15
2018-12-05T06:52:30.274Z,1020.13
2018-12-05T06:53:30.321Z,1020.11
2018-12-05T06:54:37.979Z,1020.11
2018-12-05T06:55:30.280Z,1020.04
2018-12-05T06:56:30.267Z,1020.12
2018-12-05T06:57:30.322Z,1020.02
2018-12-05T06:58:30.248Z,1020.03
2018-12-05T06:59:30.317Z,1019.99
2018-12-05T07:00:30.246Z,1020.05
2018-12-05T07:01:30.206Z,1020.08
2018-12-05T07:02:30.192Z,1020.07
2018-12-05T07:03:30.310Z,1020.11
2018-12-05T07:04:30.230Z,1020.12
2018-12-05T07:05:30.274Z,1020.16
2018-12-05T07:06:30.262Z,1020.13
2018-12-05T07:07:30.390Z,1020.14
2018-12-05T07:08:30.132Z,1020.11
2018-12-05T07:09:30.154Z,1020.15
2018-12-05T07:10:30.184Z,1020.14
2018-12-05T07:11:30.142Z,1020.19
2018-12-05T07:12:30.095Z,1020.22
2018-12-05T07:13:30.053Z,1020.18
2018-12-05T07:14:30.051Z,1020.15
2018-12-05T07:15:30.095Z,1020.13
2018-12-05T07:16:30.019Z,1020.05
2018-12-05T07:17:30.029Z,1020.10
2018-12-05T07:18:29.999Z,1020.09
2018-12-05T07:19:29.989Z,1020.07
2018-12-05T07:20:30.239Z,1020.14
2018-12-05T07:21:30.019Z,1020.09
2018-12-05T07:22:30.168Z,1020.13
2018-12-05T07:23:30.139Z,1020.15
2018-12-05T07:24:30.097Z,1020.18
2018-12-05T07:25:30.065Z,1020.21
2018-12-05T07:27:41.595Z,1020.33
2018-12-05T07:30:32.549Z,1020.30
2018-12-05T07:31:32.543Z,1020.27
2018-12-05T07:32:32.319Z,1020.23
2018-12-05T07:33:32.331Z,1020.22
2018-12-05T07:34:32.278Z,1020.21
2018-12-05T07:35:32.353Z,1020.22
2018-12-05T07:36:32.263Z,1020.22
2018-12-05T07:37:32.235Z,1020.25
2018-12-05T07:38:32.136Z,1020.25
2018-12-05T07:39:39.627Z,1020.23
2018-12-05T07:40:32.065Z,1020.24
2018-12-05T07:41:32.056Z,1020.16
2018-12-05T07:42:32.063Z,1020.15
2018-12-05T07:43:32.038Z,1020.14
2018-12-05T07:44:32.045Z,1020.11
2018-12-05T07:45:32.017Z,1020.08
2018-12-05T07:46:39.560Z,1020.06
2018-12-05T07:47:31.997Z,1020.07
2018-12-05T07:48:32.005Z,1020.11
2018-12-05T07:49:39.545Z,1020.07
2018-12-05T07:50:31.953Z,1020.04
2018-12-05T07:51:32.023Z,1020.04
2018-12-05T07:52:31.964Z,1020.06
2018-12-05T07:53:31.945Z,1020.04
2018-12-05T07:54:31.934Z,1020.05
2018-12-05T07:55:31.903Z,1020.08
2018-12-05T07:56:42.327Z,1020.01
2018-12-05T07:57:31.945Z,1019.96
2018-12-05T07:58:31.983Z,1019.94
2018-12-05T07:59:31.995Z,1019.92
2018-12-05T08:00:31.886Z,1019.90
2018-12-05T08:01:31.844Z,1019.85
2018-12-05T08:02:31.835Z,1019.85
2018-12-05T08:03:31.898Z,1019.88
2018-12-05T08:04:31.807Z,1019.95
2018-12-05T08:05:31.799Z,1019.94
2018-12-05T08:06:31.823Z,1019.92
2018-12-05T08:07:31.778Z,1019.91
2018-12-05T08:08:41.779Z,1019.94
2018-12-05T08:09:31.794Z,1019.90
2018-12-05T08:10:31.826Z,1019.91
2018-12-05T08:11:31.770Z,1019.97
2018-12-05T08:12:31.744Z,1019.85
2018-12-05T08:13:31.858Z,1019.86
2018-12-05T08:14:31.769Z,1019.88
2018-12-05T08:15:31.730Z,1019.79
2018-12-05T08:16:31.744Z,1019.79
2018-12-05T08:17:31.668Z,1019.74
2018-12-05T08:18:31.747Z,1019.76
2018-12-05T08:19:31.642Z,1019.77
2018-12-05T08:20:39.424Z,1019.76
2018-12-05T08:21:39.356Z,1019.80
2018-12-05T08:22:39.321Z,1019.75
2018-12-05T08:23:31.687Z,1019.76
2018-12-05T08:24:39.385Z,1019.69
2018-12-05T08:25:40.782Z,1019.68
2018-12-05T08:26:39.327Z,1019.62
2018-12-05T08:27:39.303Z,1019.62
2018-12-05T08:28:40.422Z,1019.58
2018-12-05T08:29:39.231Z,1019.60
2018-12-05T08:30:39.242Z,1019.53
2018-12-05T08:31:39.245Z,1019.51
2018-12-05T08:32:40.285Z,1019.50
2018-12-05T08:33:41.567Z,1019.49
2018-12-05T08:34:31.530Z,1019.45
2018-12-05T08:35:31.517Z,1019.41
2018-12-05T08:36:31.542Z,1019.39
2018-12-05T08:37:31.475Z,1019.40
2018-12-05T08:38:31.481Z,1019.46
2018-12-05T08:39:31.492Z,1019.44
2018-12-05T08:40:31.476Z,1019.45
2018-12-05T08:41:31.489Z,1019.40
2018-12-05T08:42:31.423Z,1019.42
2018-12-05T08:43:31.449Z,1019.39
2018-12-05T08:45:42.774Z,1019.38
2018-12-05T08:46:42.716Z,1019.39
2018-12-05T08:47:42.621Z,1019.36
2018-12-05T08:48:50.273Z,1019.40
2018-12-05T08:49:50.393Z,1019.39
2018-12-05T08:50:51.298Z,1019.38
2018-12-05T08:51:50.465Z,1019.44
2018-12-05T08:52:51.532Z,1019.39
2018-12-05T08:53:51.253Z,1019.45
2018-12-05T08:54:53.723Z,1019.43
2018-12-05T08:57:00.656Z,1019.44
2018-12-05T08:58:09.605Z,1019.44
2018-12-05T08:59:08.313Z,1019.45
2018-12-05T09:00:09.578Z,1019.44
2018-12-05T09:01:08.342Z,1019.47
2018-12-05T09:02:00.657Z,1019.44
2018-12-05T09:03:09.339Z,1019.43
2018-12-05T09:04:00.592Z,1019.42
2018-12-05T09:05:00.589Z,1019.39
2018-12-05T09:06:00.590Z,1019.32
2018-12-05T09:07:00.525Z,1019.36
2018-12-05T09:08:00.539Z,1019.39
2018-12-05T09:09:08.247Z,1019.39
2018-12-05T09:10:00.601Z,1019.38
2018-12-05T09:11:00.496Z,1019.41
2018-12-05T09:12:00.551Z,1019.44
2018-12-05T09:13:00.503Z,1019.40
2018-12-05T09:14:08.173Z,1019.38
2018-12-05T09:15:00.490Z,1019.42
2018-12-05T09:16:00.500Z,1019.45
2018-12-05T09:17:00.486Z,1019.41
2018-12-05T09:18:00.465Z,1019.38
2018-12-05T09:19:08.172Z,1019.37
2018-12-05T09:20:10.301Z,1019.32
2018-12-05T09:21:08.111Z,1019.34
2018-12-05T09:22:08.125Z,1019.29
2018-12-05T09:23:00.486Z,1019.27
2018-12-05T09:24:08.052Z,1019.28
2018-12-05T09:25:11.367Z,1019.28
2018-12-05T09:26:00.325Z,1019.26
2018-12-05T09:27:00.349Z,1019.29
2018-12-05T09:28:09.062Z,1019.26
2018-12-05T09:29:08.047Z,1019.23
2018-12-05T09:30:08.043Z,1019.23
2018-12-05T09:32:10.574Z,1019.15
2018-12-05T09:33:10.521Z,1019.18
2018-12-05T09:34:10.544Z,1019.09
2018-12-05T09:35:10.494Z,1019.12
2018-12-05T09:36:10.520Z,1019.10
2018-12-05T09:37:10.527Z,1019.11
2018-12-05T09:38:10.476Z,1019.05
2018-12-05T09:39:18.005Z,1019.03
2018-12-05T09:40:10.436Z,1019.04
2018-12-05T09:41:10.462Z,1019.04
2018-12-05T09:42:10.425Z,1019.03
2018-12-05T09:43:10.460Z,1019.02
2018-12-05T09:44:10.427Z,1018.96
2018-12-05T09:45:10.390Z,1018.99
2018-12-05T09:46:10.377Z,1018.96
2018-12-05T09:47:15.896Z,1019.00
2018-12-05T09:48:11.385Z,1019.00
2018-12-05T09:49:10.359Z,1018.93
2018-12-05T09:50:10.346Z,1018.95
2018-12-05T09:51:10.359Z,1018.87
2018-12-05T09:52:10.310Z,1018.87
2018-12-05T09:53:10.299Z,1018.82
2018-12-05T09:54:10.296Z,1018.75
2018-12-05T09:55:10.293Z,1018.73
2018-12-05T09:56:10.302Z,1018.80
2018-12-05T09:57:10.271Z,1018.76
2018-12-05T09:58:10.245Z,1018.72
2018-12-05T09:59:10.253Z,1018.76
2018-12-05T10:00:10.223Z,1018.79
2018-12-05T10:01:10.219Z,1018.77
2018-12-05T10:02:10.222Z,1018.79
2018-12-05T10:03:10.200Z,1018.76
2018-12-05T10:04:10.180Z,1018.70
2018-12-05T10:05:10.172Z,1018.74
2018-12-05T10:06:10.211Z,1018.67
2018-12-05T10:07:10.277Z,1018.69
2018-12-05T10:08:10.175Z,1018.69
2018-12-05T10:09:10.124Z,1018.68
2018-12-05T10:10:10.113Z,1018.69
2018-12-05T10:11:10.105Z,1018.71
2018-12-05T10:12:10.112Z,1018.71
2018-12-05T10:13:10.079Z,1018.63
2018-12-05T10:14:10.083Z,1018.65
2018-12-05T10:15:10.078Z,1018.66
2018-12-05T10:16:10.048Z,1018.67
2018-12-05T10:17:10.062Z,1018.69
2018-12-05T10:18:10.065Z,1018.78
2018-12-05T10:19:10.024Z,1018.75
2018-12-05T10:20:10.006Z,1018.72
2018-12-05T10:21:10.001Z,1018.69
2018-12-05T10:22:09.997Z,1018.69
2018-12-05T10:23:09.998Z,1018.69
2018-12-05T10:24:09.964Z,1018.59
2018-12-05T10:25:09.952Z,1018.55
2018-12-05T10:26:09.958Z,1018.55
2018-12-05T10:27:09.925Z,1018.62
2018-12-05T10:28:09.952Z,1018.62
2018-12-05T10:29:09.904Z,1018.65
2018-12-05T10:30:09.901Z,1018.67
2018-12-05T10:31:09.895Z,1018.65
2018-12-05T10:32:09.873Z,1018.59
2018-12-05T10:33:09.887Z,1018.64
2018-12-05T10:34:09.865Z,1018.66
2018-12-05T10:35:09.850Z,1018.66
2018-12-05T10:36:09.834Z,1018.62
2018-12-05T10:37:09.822Z,1018.62
2018-12-05T10:38:09.867Z,1018.61
2018-12-05T10:39:09.805Z,1018.60
2018-12-05T10:40:09.787Z,1018.58
2018-12-05T10:41:09.781Z,1018.57
2018-12-05T10:42:09.851Z,1018.51
2018-12-05T10:43:09.765Z,1018.50
2018-12-05T10:44:09.760Z,1018.46
2018-12-05T10:45:09.809Z,1018.40
2018-12-05T10:46:09.762Z,1018.35
2018-12-05T10:47:09.720Z,1018.31
2018-12-05T10:48:09.750Z,1018.30
2018-12-05T10:49:09.713Z,1018.21
2018-12-05T10:50:09.690Z,1018.20
2018-12-05T10:51:09.676Z,1018.20
2018-12-05T10:52:09.669Z,1018.19
2018-12-05T10:53:09.650Z,1018.20
2018-12-05T10:54:09.653Z,1018.14
2018-12-05T10:55:09.655Z,1018.05
2018-12-05T10:56:09.627Z,1018.05
2018-12-05T10:57:09.608Z,1018.04
2018-12-05T10:58:09.602Z,1018.01
2018-12-05T10:59:09.605Z,1018.01
2018-12-05T11:00:09.580Z,1018.05
2018-12-05T11:01:09.559Z,1017.98
2018-12-05T11:02:09.561Z,1017.91
2018-12-05T11:03:09.541Z,1017.87
2018-12-05T11:04:09.584Z,1017.90
2018-12-05T11:05:09.535Z,1017.91
2018-12-05T11:06:09.521Z,1017.92
2018-12-05T11:07:09.506Z,1017.94
2018-12-05T11:08:09.497Z,1017.92
2018-12-05T11:09:18.263Z,1017.93
2018-12-05T11:10:09.466Z,1017.95
2018-12-05T11:11:09.454Z,1017.87
2018-12-05T11:12:09.448Z,1017.89
2018-12-05T11:13:09.432Z,1017.89
2018-12-05T11:14:18.290Z,1017.84
2018-12-05T11:15:09.409Z,1017.91
2018-12-05T11:16:09.413Z,1017.85
2018-12-05T11:17:09.403Z,1017.84
2018-12-05T11:18:09.381Z,1017.78
2018-12-05T11:19:18.459Z,1017.75
2018-12-05T11:20:16.914Z,1017.79
2018-12-05T11:21:09.345Z,1017.72
2018-12-05T11:22:09.338Z,1017.73
2018-12-05T11:23:09.328Z,1017.75
2018-12-05T11:24:09.355Z,1017.73
2018-12-05T11:25:09.311Z,1017.68
2018-12-05T11:26:09.301Z,1017.77
2018-12-05T11:29:32.070Z,1017.62
2018-12-05T11:30:32.013Z,1017.61
2018-12-05T11:31:32.148Z,1017.57
2018-12-05T11:32:32.050Z,1017.57
2018-12-05T11:33:31.913Z,1017.51
2018-12-05T11:34:31.918Z,1017.52
2018-12-05T11:35:31.825Z,1017.53
2018-12-05T11:36:31.877Z,1017.46
2018-12-05T11:37:31.805Z,1017.50
2018-12-05T11:38:31.828Z,1017.46
2018-12-05T11:39:31.829Z,1017.41
2018-12-05T11:40:31.867Z,1017.41
2018-12-05T11:41:32.727Z,1017.38
2018-12-05T11:42:31.769Z,1017.42
2018-12-05T11:43:31.908Z,1017.36
2018-12-05T11:44:31.828Z,1017.29
2018-12-05T11:45:31.956Z,1017.31
2018-12-05T11:46:42.479Z,1017.28
2018-12-05T11:47:31.972Z,1017.29
2018-12-05T11:48:32.119Z,1017.28
2018-12-05T11:49:31.681Z,1017.30
2018-12-05T11:50:31.731Z,1017.26
2018-12-05T11:51:31.815Z,1017.27
2018-12-05T11:52:31.653Z,1017.24
2018-12-05T11:53:42.448Z,1017.26
2018-12-05T11:54:31.611Z,1017.20
2018-12-05T11:55:40.183Z,1017.17
2018-12-05T11:56:31.588Z,1017.13
2018-12-05T11:57:31.586Z,1017.15
2018-12-05T11:58:31.593Z,1017.23
2018-12-05T11:59:31.566Z,1017.19
2018-12-05T12:00:31.584Z,1017.16
2018-12-05T12:01:31.559Z,1017.17
2018-12-05T12:02:31.532Z,1017.14
2018-12-05T12:03:31.564Z,1017.10
2018-12-05T12:04:31.513Z,1017.09
2018-12-05T12:05:31.530Z,1017.12
2018-12-05T12:06:31.504Z,1017.07
2018-12-05T12:07:31.470Z,1017.00
2018-12-05T12:08:31.480Z,1017.01
2018-12-05T12:09:31.452Z,1017.01
2018-12-05T12:10:31.467Z,1016.96
2018-12-05T12:11:31.451Z,1016.96
2018-12-05T12:12:31.428Z,1017.01
2018-12-05T12:13:31.421Z,1016.97
2018-12-05T12:14:31.399Z,1016.93
2018-12-05T12:15:31.390Z,1016.96
2018-12-05T12:16:31.397Z,1016.90
2018-12-05T12:17:31.391Z,1016.92
2018-12-05T12:18:31.356Z,1016.94
2018-12-05T12:19:31.352Z,1016.88